GOOY Airport Information

Runway Information
Runway 03 Length 4921 ft width 98 ft
Elevation 63 ft Threshold 0 ft Heading 23
Runway 21 Length 4921 ft Width 98 ft
Elevation 56 ft Threshold 0 ft Heading 203
Runway 18 Length 11450 ft width 148 ft
Elevation 64 ft Threshold 525 ft Heading 173
Runway 36 Length 11450 ft Width 148 ft
Elevation 75 ft Threshold 0 ft Heading 353
Airport Frequencies
Type APP Name DAKAR CON Frequency 120.5 MHZ
Type INFO Name DAKAR INFO Frequency 129.5 MHZ
Type INFO Name DAKAR INFO Frequency 345.2 MHZ
Type TWR Name DAKAR TWR Frequency 118.1 MHZ
Airport Navaids
Type NDB Name Dakar Frequency 323 KHZ
Type VOR-DME Name Dakar Frequency 113100 KHZ
Airport Weather Information & NOTAM
ADDS - METARS form results

(0530 UTC 09 December 2019)
Data provider http://aviationweather.gov/metar/data/
 
Forecast for: COR
Text: TAF COR GOOY 082330Z 0900/1006 02010KT CAVOK
Forecast period: 0000 UTC 09 December 2019 to 0600 UTC 10 December 2019
Forecast type: FROM: standard forecast or significant change
Winds: from the NNE (20 degrees) at 12 MPH (10 knots; 5.1 m/s)
Visibility: 6 or more miles 10+ km)
Ceiling: unknown
Clouds: missing
Weather: NSW  (no significant weather)
Text: PROB30
Forecast period: 0900 to 1500 UTC 09 December 2019
Forecast type: TEMPORARY: The following changes expected for less than half the time period
Visibility: 2.49 miles (4.01 km)
Ceiling: unknown
Clouds: missing
Weather: DU  (widespread dust)